createdAt,value
2018-06-23T00:00:20.663Z,15.7
2018-06-23T00:00:46.807Z,15.76
2018-06-23T00:01:13.001Z,15.64
2018-06-23T00:01:39.139Z,15.64
2018-06-23T00:02:05.299Z,15.68
2018-06-23T00:02:31.443Z,15.54
2018-06-23T00:02:57.614Z,15.57
2018-06-23T00:03:23.754Z,15.54
2018-06-23T00:03:49.996Z,15.57
2018-06-23T00:04:16.132Z,15.47
2018-06-23T00:04:42.291Z,15.57
2018-06-23T00:05:08.428Z,15.62
2018-06-23T00:05:34.564Z,15.52
2018-06-23T00:06:00.701Z,15.44
2018-06-23T00:06:26.907Z,15.52
2018-06-23T00:06:53.019Z,15.51
2018-06-23T00:07:19.157Z,15.47
2018-06-23T00:07:45.309Z,15.47
2018-06-23T00:08:11.508Z,15.49
2018-06-23T00:08:37.673Z,15.57
2018-06-23T00:09:03.807Z,15.57
2018-06-23T00:09:29.976Z,15.55
2018-06-23T00:09:56.133Z,15.59
2018-06-23T00:10:22.268Z,15.57
2018-06-23T00:10:48.405Z,15.59
2018-06-23T00:11:14.569Z,15.52
2018-06-23T00:11:40.771Z,15.51
2018-06-23T00:12:06.914Z,15.54
2018-06-23T00:12:33.139Z,15.57
2018-06-23T00:12:59.282Z,15.49
2018-06-23T00:13:25.446Z,15.55
2018-06-23T00:13:51.586Z,15.51
2018-06-23T00:14:17.743Z,15.51
2018-06-23T00:14:43.897Z,15.49
2018-06-23T00:15:10.062Z,15.42
2018-06-23T00:15:36.232Z,15.47
2018-06-23T00:16:02.376Z,15.43
2018-06-23T00:16:28.516Z,15.52
2018-06-23T00:16:54.666Z,15.55
2018-06-23T00:17:20.854Z,15.49
2018-06-23T00:17:47.001Z,15.57
2018-06-23T00:18:13.168Z,15.58
2018-06-23T00:18:39.378Z,15.51
2018-06-23T00:19:05.594Z,15.51
2018-06-23T00:19:31.747Z,15.59
2018-06-23T00:19:58.045Z,15.52
2018-06-23T00:20:24.177Z,15.49
2018-06-23T00:20:50.312Z,15.52
2018-06-23T00:21:16.456Z,15.51
2018-06-23T00:21:42.622Z,15.55
2018-06-23T00:22:08.765Z,15.51
2018-06-23T00:22:34.902Z,15.52
2018-06-23T00:23:01.035Z,15.49
2018-06-23T00:23:28.117Z,15.62
2018-06-23T00:23:54.462Z,15.49
2018-06-23T00:24:20.611Z,15.52
2018-06-23T00:24:46.762Z,15.49
2018-06-23T00:25:12.890Z,15.54
2018-06-23T00:25:39.271Z,15.46
2018-06-23T00:26:05.500Z,15.54
2018-06-23T00:26:31.646Z,15.47
2018-06-23T00:26:57.847Z,15.4
2018-06-23T00:27:24.124Z,15.42
2018-06-23T00:27:50.276Z,15.42
2018-06-23T00:28:16.503Z,15.44
2018-06-23T00:28:42.711Z,15.47
2018-06-23T00:29:08.947Z,15.49
2018-06-23T00:29:35.136Z,15.47
2018-06-23T00:30:01.340Z,15.43
2018-06-23T00:30:27.593Z,15.42
2018-06-23T00:30:53.931Z,15.46
2018-06-23T00:31:20.054Z,15.37
2018-06-23T00:31:46.309Z,15.43
2018-06-23T00:32:12.546Z,15.29
2018-06-23T00:32:38.686Z,15.39
2018-06-23T00:33:04.966Z,15.37
2018-06-23T00:33:31.325Z,15.46
2018-06-23T00:33:57.551Z,15.4
2018-06-23T00:34:23.775Z,15.33
2018-06-23T00:34:50.011Z,15.4
2018-06-23T00:35:16.149Z,15.42
2018-06-23T00:35:42.290Z,15.31
2018-06-23T00:36:08.456Z,15.43
2018-06-23T00:36:34.619Z,15.4
2018-06-23T00:37:00.755Z,15.4
2018-06-23T00:37:26.893Z,15.42
2018-06-23T00:37:53.037Z,15.42
2018-06-23T00:38:19.213Z,15.4
2018-06-23T00:38:45.683Z,15.29
2018-06-23T00:39:11.907Z,15.29
2018-06-23T00:39:38.076Z,15.36
2018-06-23T00:40:04.206Z,15.24
2018-06-23T00:40:30.743Z,15.28
2018-06-23T00:40:56.835Z,15.33
2018-06-23T00:41:22.979Z,15.27
2018-06-23T00:41:49.111Z,15.29
2018-06-23T00:42:15.253Z,15.35
2018-06-23T00:42:41.388Z,15.33
2018-06-23T00:43:07.529Z,15.29
2018-06-23T00:43:33.692Z,15.36
2018-06-23T00:43:59.865Z,15.27
2018-06-23T00:44:26.009Z,15.35
2018-06-23T00:44:52.631Z,15.28
2018-06-23T00:45:19.194Z,15.29
2018-06-23T00:45:45.326Z,15.27
2018-06-23T00:46:11.469Z,15.29
2018-06-23T00:46:37.612Z,15.27
2018-06-23T00:47:03.747Z,15.25
2018-06-23T00:47:29.893Z,15.28
2018-06-23T00:47:56.030Z,15.27
2018-06-23T00:48:22.164Z,15.29
2018-06-23T00:48:48.476Z,15.27
2018-06-23T00:49:14.660Z,15.28
2018-06-23T00:49:40.944Z,15.25
2018-06-23T00:50:07.020Z,15.22
2018-06-23T00:50:33.154Z,15.28
2018-06-23T00:50:59.285Z,15.28
2018-06-23T00:51:25.446Z,15.28
2018-06-23T00:51:51.586Z,15.35
2018-06-23T00:52:17.773Z,15.27
2018-06-23T00:52:43.924Z,15.24
2018-06-23T00:53:10.259Z,15.17
2018-06-23T00:53:36.420Z,15.27
2018-06-23T00:54:02.580Z,15.21
2018-06-23T00:54:28.743Z,15.21
2018-06-23T00:54:54.887Z,15.24
2018-06-23T00:55:21.023Z,15.21
2018-06-23T00:55:47.162Z,15.27
2018-06-23T00:56:13.412Z,15.25
2018-06-23T00:56:39.592Z,15.29
2018-06-23T00:57:05.740Z,15.18
2018-06-23T00:57:31.879Z,15.1
2018-06-23T00:57:58.019Z,15.17
2018-06-23T00:58:24.206Z,15.19
2018-06-23T00:58:50.350Z,15.11
2018-06-23T00:59:16.488Z,15.22
2018-06-23T00:59:42.624Z,15.18
2018-06-23T01:00:08.758Z,15.17
2018-06-23T01:00:34.908Z,15.15
2018-06-23T01:01:01.051Z,15.15
2018-06-23T01:01:27.373Z,15.21
2018-06-23T01:01:53.683Z,15.11
2018-06-23T01:02:19.813Z,15.17
2018-06-23T01:02:45.956Z,15.17
2018-06-23T01:03:12.094Z,15.07
2018-06-23T01:03:38.261Z,15.18
2018-06-23T01:04:04.394Z,15.14
2018-06-23T01:04:30.562Z,15.17
2018-06-23T01:04:56.699Z,15.17
2018-06-23T01:05:22.838Z,15.14
2018-06-23T01:05:48.982Z,15.1
2018-06-23T01:06:15.114Z,15.09
2018-06-23T01:06:41.249Z,15.07
2018-06-23T01:07:07.389Z,15.06
2018-06-23T01:07:33.527Z,15.06
2018-06-23T01:07:59.666Z,15.1
2018-06-23T01:08:25.810Z,15.11
2018-06-23T01:08:51.949Z,15.07
2018-06-23T01:09:18.092Z,15.1
2018-06-23T01:09:44.242Z,15.07
2018-06-23T01:10:10.407Z,15.07
2018-06-23T01:10:36.551Z,15.1
2018-06-23T01:11:02.690Z,15.06
2018-06-23T01:11:28.825Z,15.06
2018-06-23T01:11:54.961Z,15.07
2018-06-23T01:12:21.126Z,15.07
2018-06-23T01:12:47.265Z,15.04
2018-06-23T01:13:13.396Z,15.03
2018-06-23T01:13:39.531Z,14.99
2018-06-23T01:14:05.667Z,15.02
2018-06-23T01:14:31.815Z,15.02
2018-06-23T01:14:57.956Z,14.99
2018-06-23T01:15:24.111Z,14.99
2018-06-23T01:15:50.317Z,15
2018-06-23T01:16:16.424Z,15.04
2018-06-23T01:16:42.569Z,14.99
2018-06-23T01:17:08.717Z,14.96
2018-06-23T01:17:34.889Z,14.92
2018-06-23T01:18:01.031Z,14.92
2018-06-23T01:18:27.167Z,14.92
2018-06-23T01:18:53.309Z,14.92
2018-06-23T01:19:19.449Z,14.97
2018-06-23T01:19:45.584Z,15.02
2018-06-23T01:20:11.721Z,14.99
2018-06-23T01:20:37.865Z,14.99
2018-06-23T01:21:04.001Z,15.04
2018-06-23T01:21:30.138Z,15.04
2018-06-23T01:21:56.279Z,15.06
2018-06-23T01:22:22.415Z,14.94
2018-06-23T01:22:48.554Z,15.04
2018-06-23T01:23:14.697Z,15
2018-06-23T01:23:40.857Z,15
2018-06-23T01:24:06.987Z,14.97
2018-06-23T01:24:33.129Z,15.06
2018-06-23T01:24:59.266Z,15.02
2018-06-23T01:25:25.422Z,15.07
2018-06-23T01:25:51.564Z,15.03
2018-06-23T01:26:17.701Z,15.03
2018-06-23T01:26:43.840Z,14.99
2018-06-23T01:27:09.984Z,15.03
2018-06-23T01:27:36.121Z,14.96
2018-06-23T01:28:02.283Z,15
2018-06-23T01:28:28.420Z,15.04
2018-06-23T01:28:54.580Z,15
2018-06-23T01:29:20.724Z,15.1
2018-06-23T01:29:46.862Z,15.11
2018-06-23T01:30:12.999Z,15.07
2018-06-23T01:30:39.138Z,15.06
2018-06-23T01:31:05.270Z,14.99
2018-06-23T01:31:31.407Z,14.97
2018-06-23T01:31:57.547Z,15
2018-06-23T01:32:23.681Z,15.03
2018-06-23T01:32:49.824Z,15
2018-06-23T01:33:15.962Z,15
2018-06-23T01:33:42.101Z,15.04
2018-06-23T01:34:08.239Z,14.97
2018-06-23T01:34:34.372Z,15
2018-06-23T01:35:00.519Z,15.04
2018-06-23T01:35:26.662Z,14.91
2018-06-23T01:35:52.800Z,14.89
2018-06-23T01:36:18.931Z,14.94
2018-06-23T01:36:45.067Z,14.92
2018-06-23T01:37:11.226Z,14.79
2018-06-23T01:37:37.364Z,14.86
2018-06-23T01:38:03.503Z,14.91
2018-06-23T01:38:29.664Z,14.89
2018-06-23T01:38:55.803Z,14.96
2018-06-23T01:39:21.988Z,14.99
2018-06-23T01:39:48.081Z,14.94
2018-06-23T01:40:14.220Z,14.91
2018-06-23T01:40:40.362Z,14.84
2018-06-23T01:41:06.499Z,14.91
2018-06-23T01:41:32.650Z,14.88
2018-06-23T01:41:58.810Z,14.84
2018-06-23T01:42:24.951Z,14.92
2018-06-23T01:42:51.081Z,14.89
2018-06-23T01:43:17.272Z,14.88
2018-06-23T01:43:43.408Z,14.78
2018-06-23T01:44:09.546Z,14.82
2018-06-23T01:44:35.701Z,14.86
2018-06-23T01:45:01.864Z,14.82
2018-06-23T01:45:28.002Z,14.92
2018-06-23T01:45:54.159Z,14.86
2018-06-23T01:46:20.294Z,14.78
2018-06-23T01:46:46.464Z,14.82
2018-06-23T01:47:12.628Z,14.88
2018-06-23T01:47:38.761Z,14.92
2018-06-23T01:48:04.912Z,14.81
2018-06-23T01:48:31.039Z,14.88
2018-06-23T01:48:57.179Z,14.88
2018-06-23T01:49:23.316Z,14.86
2018-06-23T01:49:49.481Z,14.92
2018-06-23T01:50:15.615Z,14.86
2018-06-23T01:50:41.759Z,14.84
2018-06-23T01:51:07.899Z,14.82
2018-06-23T01:51:34.038Z,14.82
2018-06-23T01:52:00.167Z,14.88
2018-06-23T01:52:26.310Z,14.85
2018-06-23T01:52:52.447Z,14.79
2018-06-23T01:53:18.643Z,14.82
2018-06-23T01:53:44.785Z,14.91
2018-06-23T01:54:10.914Z,14.84
2018-06-23T01:54:37.054Z,14.84
2018-06-23T01:55:03.200Z,14.88
2018-06-23T01:55:29.341Z,14.86
2018-06-23T01:55:55.503Z,14.81
2018-06-23T01:56:21.639Z,14.84
2018-06-23T01:56:47.775Z,14.84
2018-06-23T01:57:13.914Z,14.88
2018-06-23T01:57:40.093Z,14.84
2018-06-23T01:58:06.236Z,14.92
2018-06-23T01:58:32.371Z,14.88
2018-06-23T01:58:58.534Z,14.88
2018-06-23T01:59:24.663Z,14.91
2018-06-23T01:59:50.796Z,14.82
2018-06-23T02:00:16.958Z,14.86
2018-06-23T02:00:43.096Z,14.84
2018-06-23T02:01:09.240Z,14.82
2018-06-23T02:01:35.374Z,14.81
2018-06-23T02:02:01.557Z,14.69
2018-06-23T02:02:27.713Z,14.82
2018-06-23T02:02:53.854Z,14.78
2018-06-23T02:03:19.990Z,14.84
2018-06-23T02:03:46.129Z,14.72
2018-06-23T02:04:12.265Z,14.85
2018-06-23T02:04:38.407Z,14.72
2018-06-23T02:05:04.547Z,14.82
2018-06-23T02:05:30.696Z,14.79
2018-06-23T02:05:56.838Z,14.84
2018-06-23T02:06:22.987Z,14.82
2018-06-23T02:06:49.128Z,14.85
2018-06-23T02:07:15.267Z,14.69
2018-06-23T02:07:41.407Z,14.72
2018-06-23T02:08:07.566Z,14.77
2018-06-23T02:08:33.701Z,14.77
2018-06-23T02:08:59.842Z,14.77
2018-06-23T02:09:25.990Z,14.77
2018-06-23T02:09:52.124Z,14.77
2018-06-23T02:10:18.289Z,14.73
2018-06-23T02:10:44.426Z,14.77
2018-06-23T02:11:10.568Z,14.73
2018-06-23T02:11:36.707Z,14.72
2018-06-23T02:12:02.877Z,14.72
2018-06-23T02:12:29.009Z,14.7
2018-06-23T02:12:55.151Z,14.73
2018-06-23T02:13:21.288Z,14.81
2018-06-23T02:13:47.427Z,14.72
2018-06-23T02:14:13.562Z,14.66
2018-06-23T02:14:39.689Z,14.69
2018-06-23T02:15:05.837Z,14.79
2018-06-23T02:15:31.968Z,14.79
2018-06-23T02:15:58.111Z,14.79
2018-06-23T02:16:24.248Z,14.73
2018-06-23T02:16:50.385Z,14.69
2018-06-23T02:17:16.526Z,14.82
2018-06-23T02:17:42.662Z,14.77
2018-06-23T02:18:08.801Z,14.86
2018-06-23T02:18:34.937Z,14.72
2018-06-23T02:19:01.083Z,14.72
2018-06-23T02:19:27.266Z,14.72
2018-06-23T02:19:53.405Z,14.6
2018-06-23T02:20:19.551Z,14.73
2018-06-23T02:20:45.689Z,14.65
2018-06-23T02:21:11.838Z,14.68
2018-06-23T02:21:37.995Z,14.7
2018-06-23T02:22:04.155Z,14.69
2018-06-23T02:22:30.314Z,14.63
2018-06-23T02:22:56.457Z,14.66
2018-06-23T02:23:22.589Z,14.68
2018-06-23T02:23:48.732Z,14.68
2018-06-23T02:24:14.873Z,14.66
2018-06-23T02:24:41.022Z,14.65
2018-06-23T02:25:07.161Z,14.72
2018-06-23T02:25:33.295Z,14.68
2018-06-23T02:25:59.431Z,14.66
2018-06-23T02:26:25.598Z,14.69
2018-06-23T02:26:51.734Z,14.68
2018-06-23T02:27:17.872Z,14.66
2018-06-23T02:27:44.011Z,14.68
2018-06-23T02:28:10.151Z,14.66
2018-06-23T02:28:36.281Z,14.66
2018-06-23T02:29:02.421Z,14.68
2018-06-23T02:29:28.559Z,14.69
2018-06-23T02:29:54.704Z,14.6
2018-06-23T02:30:20.870Z,14.63
2018-06-23T02:30:47.056Z,14.59
2018-06-23T02:31:13.191Z,14.62
2018-06-23T02:31:39.328Z,14.55
2018-06-23T02:32:05.492Z,14.65
2018-06-23T02:32:31.667Z,14.63
2018-06-23T02:32:57.807Z,14.65
2018-06-23T02:33:23.939Z,14.6
2018-06-23T02:33:50.102Z,14.65
2018-06-23T02:34:16.265Z,14.63
2018-06-23T02:34:42.434Z,14.59
2018-06-23T02:35:08.592Z,14.65
2018-06-23T02:35:34.726Z,14.68
2018-06-23T02:36:00.928Z,14.65
2018-06-23T02:36:27.064Z,14.68
2018-06-23T02:36:53.246Z,14.7
2018-06-23T02:37:19.387Z,14.65
2018-06-23T02:37:45.554Z,14.68
2018-06-23T02:38:11.694Z,14.68
2018-06-23T02:38:37.829Z,14.69
2018-06-23T02:39:03.992Z,14.65
2018-06-23T02:39:30.125Z,14.69
2018-06-23T02:39:56.296Z,14.6
2018-06-23T02:40:22.471Z,14.65
2018-06-23T02:40:48.641Z,14.69
2018-06-23T02:41:14.777Z,14.72
2018-06-23T02:41:40.937Z,14.73
2018-06-23T02:42:07.150Z,14.66
2018-06-23T02:42:33.292Z,14.66
2018-06-23T02:42:59.469Z,14.68
2018-06-23T02:43:25.636Z,14.66
2018-06-23T02:43:51.797Z,14.72
2018-06-23T02:44:17.937Z,14.63
2018-06-23T02:44:44.104Z,14.66
2018-06-23T02:45:10.269Z,14.84
2018-06-23T02:45:36.431Z,14.7
2018-06-23T02:46:02.574Z,14.69
2018-06-23T02:46:28.762Z,14.68
2018-06-23T02:46:54.949Z,14.81
2018-06-23T02:47:21.093Z,14.82
2018-06-23T02:47:47.277Z,14.78
2018-06-23T02:48:13.444Z,14.84
2018-06-23T02:48:39.577Z,14.85
2018-06-23T02:49:05.739Z,14.81
2018-06-23T02:49:31.878Z,14.72
2018-06-23T02:49:58.016Z,14.7
2018-06-23T02:50:24.198Z,14.68
2018-06-23T02:50:50.355Z,14.73
2018-06-23T02:51:16.497Z,14.79
2018-06-23T02:51:42.662Z,14.68
2018-06-23T02:52:08.825Z,14.73
2018-06-23T02:52:34.996Z,14.65
2018-06-23T02:53:01.131Z,14.73
2018-06-23T02:53:27.296Z,14.79
2018-06-23T02:53:53.485Z,14.66
2018-06-23T02:54:19.653Z,14.65
2018-06-23T02:54:45.809Z,14.66
2018-06-23T02:55:11.947Z,14.66
2018-06-23T02:55:38.086Z,14.68
2018-06-23T02:56:04.246Z,14.68
2018-06-23T02:56:30.377Z,14.62
2018-06-23T02:56:56.527Z,14.65
2018-06-23T02:57:22.680Z,14.63
2018-06-23T02:57:48.863Z,14.66
2018-06-23T02:58:15.051Z,14.72
2018-06-23T02:58:41.184Z,14.68
2018-06-23T02:59:07.328Z,14.72
2018-06-23T02:59:33.489Z,14.63
2018-06-23T02:59:59.663Z,14.65
2018-06-23T03:00:25.813Z,14.63
2018-06-23T03:00:51.945Z,14.7
2018-06-23T03:01:18.271Z,14.69
2018-06-23T03:01:44.598Z,14.69
2018-06-23T03:02:10.902Z,14.65
2018-06-23T03:02:37.255Z,14.62
2018-06-23T03:03:03.514Z,14.62
2018-06-23T03:03:29.718Z,14.66
2018-06-23T03:03:55.905Z,14.59
2018-06-23T03:04:22.137Z,14.66
2018-06-23T03:04:48.408Z,14.7
2018-06-23T03:05:14.656Z,14.69
2018-06-23T03:05:40.864Z,14.72
2018-06-23T03:06:07.164Z,14.69
2018-06-23T03:06:33.352Z,14.68
2018-06-23T03:06:59.495Z,14.66
2018-06-23T03:07:25.823Z,14.66
2018-06-23T03:07:52.062Z,14.66
2018-06-23T03:08:18.325Z,14.66
2018-06-23T03:08:44.507Z,14.63
2018-06-23T03:09:10.695Z,14.78
2018-06-23T03:09:37.058Z,14.85
2018-06-23T03:10:03.218Z,14.7
2018-06-23T03:10:29.383Z,14.72
2018-06-23T03:10:55.518Z,14.72
2018-06-23T03:11:21.710Z,14.77
2018-06-23T03:11:47.857Z,14.78
2018-06-23T03:12:14.019Z,14.81
2018-06-23T03:12:40.174Z,14.82
2018-06-23T03:13:06.324Z,14.78
2018-06-23T03:13:32.486Z,14.78
2018-06-23T03:13:58.647Z,14.77
2018-06-23T03:14:24.784Z,14.73
2018-06-23T03:14:50.945Z,14.81
2018-06-23T03:15:17.079Z,14.78
2018-06-23T03:15:43.281Z,14.79
2018-06-23T03:16:09.468Z,14.73
2018-06-23T03:16:35.621Z,14.82
2018-06-23T03:17:01.740Z,14.78
2018-06-23T03:17:27.906Z,14.65
2018-06-23T03:17:54.044Z,14.68
2018-06-23T03:18:20.178Z,14.72
2018-06-23T03:18:46.357Z,14.65
2018-06-23T03:19:12.498Z,14.65
2018-06-23T03:19:38.632Z,14.68
2018-06-23T03:20:04.775Z,14.63
2018-06-23T03:20:30.926Z,14.68
2018-06-23T03:20:57.060Z,14.65
2018-06-23T03:21:23.207Z,14.62
2018-06-23T03:21:49.371Z,14.69
2018-06-23T03:22:15.529Z,14.62
2018-06-23T03:22:41.672Z,14.66
2018-06-23T03:23:07.804Z,14.72
2018-06-23T03:23:33.944Z,14.66
2018-06-23T03:24:00.083Z,14.73
2018-06-23T03:24:26.218Z,14.62
2018-06-23T03:24:52.356Z,14.66
2018-06-23T03:25:18.531Z,14.66
2018-06-23T03:25:44.662Z,14.69
2018-06-23T03:26:10.799Z,14.7
2018-06-23T03:26:36.961Z,14.65
2018-06-23T03:27:03.098Z,14.62
2018-06-23T03:27:29.241Z,14.63
2018-06-23T03:27:55.426Z,14.65
2018-06-23T03:28:21.564Z,14.62
2018-06-23T03:28:47.707Z,14.58
2018-06-23T03:29:13.850Z,14.59
2018-06-23T03:29:39.988Z,14.54
2018-06-23T03:30:06.141Z,14.65
2018-06-23T03:30:32.290Z,14.59
2018-06-23T03:30:58.425Z,14.65
2018-06-23T03:31:24.566Z,14.6
2018-06-23T03:31:50.748Z,14.54
2018-06-23T03:32:16.883Z,14.58
2018-06-23T03:32:43.022Z,14.62
2018-06-23T03:33:09.166Z,14.55
2018-06-23T03:33:35.296Z,14.69
2018-06-23T03:34:01.444Z,14.69
2018-06-23T03:34:27.604Z,14.63
2018-06-23T03:34:53.750Z,14.7
2018-06-23T03:35:19.908Z,14.63
2018-06-23T03:35:46.048Z,14.68
2018-06-23T03:36:12.208Z,14.65
2018-06-23T03:36:38.345Z,14.62
2018-06-23T03:37:04.478Z,14.6
2018-06-23T03:37:30.646Z,14.6
2018-06-23T03:37:56.789Z,14.63
2018-06-23T03:38:22.925Z,14.66
2018-06-23T03:38:49.060Z,14.68
2018-06-23T03:39:15.217Z,14.65
2018-06-23T03:39:41.358Z,14.63
2018-06-23T03:40:07.495Z,14.7
2018-06-23T03:40:33.626Z,14.68
2018-06-23T03:40:59.755Z,14.68
2018-06-23T03:41:25.896Z,14.66
2018-06-23T03:41:52.059Z,14.63
2018-06-23T03:42:18.270Z,14.65
2018-06-23T03:42:44.408Z,14.65
2018-06-23T03:43:10.554Z,14.77
2018-06-23T03:43:36.725Z,14.65
2018-06-23T03:44:02.927Z,14.7
2018-06-23T03:44:29.070Z,14.65
2018-06-23T03:44:55.207Z,14.69
2018-06-23T03:45:21.345Z,14.72
2018-06-23T03:45:47.506Z,14.66
2018-06-23T03:46:13.648Z,14.55
2018-06-23T03:46:39.783Z,14.68
2018-06-23T03:47:05.950Z,14.54
2018-06-23T03:47:32.092Z,14.7
2018-06-23T03:47:58.227Z,14.66
2018-06-23T03:48:24.369Z,14.65
2018-06-23T03:48:50.529Z,14.78
2018-06-23T03:49:16.667Z,14.78
2018-06-23T03:49:42.810Z,14.72
2018-06-23T03:50:08.957Z,14.79
2018-06-23T03:50:35.097Z,14.77
2018-06-23T03:51:01.257Z,14.73
2018-06-23T03:51:27.396Z,14.72
2018-06-23T03:51:53.536Z,14.73
2018-06-23T03:52:19.674Z,14.72
2018-06-23T03:52:45.833Z,14.65
2018-06-23T03:53:11.970Z,14.68
2018-06-23T03:53:38.129Z,14.65
2018-06-23T03:54:04.266Z,14.63
2018-06-23T03:54:30.430Z,14.65
2018-06-23T03:54:56.575Z,14.72
2018-06-23T03:55:22.757Z,14.65
2018-06-23T03:55:48.906Z,14.6
2018-06-23T03:56:15.043Z,14.69
2018-06-23T03:56:41.176Z,14.62
2018-06-23T03:57:07.324Z,14.68
2018-06-23T03:57:33.460Z,14.81
2018-06-23T03:57:59.598Z,14.69
2018-06-23T03:58:25.732Z,14.7
2018-06-23T03:58:51.865Z,14.79
2018-06-23T03:59:18.000Z,14.72
2018-06-23T03:59:44.141Z,14.73
2018-06-23T04:00:10.288Z,14.73
2018-06-23T04:00:36.452Z,14.7
2018-06-23T04:01:02.584Z,14.72
2018-06-23T04:01:28.784Z,14.84
2018-06-23T04:01:54.920Z,14.77
2018-06-23T04:02:21.061Z,14.73
2018-06-23T04:02:47.199Z,14.7
2018-06-23T04:03:13.370Z,14.69
2018-06-23T04:03:39.501Z,14.78
2018-06-23T04:04:05.671Z,14.78
2018-06-23T04:04:31.804Z,14.73
2018-06-23T04:04:57.949Z,14.72
2018-06-23T04:05:24.089Z,14.72
2018-06-23T04:05:50.225Z,14.69
2018-06-23T04:06:16.374Z,14.78
2018-06-23T04:06:42.536Z,14.65
2018-06-23T04:07:08.726Z,14.65
2018-06-23T04:07:34.854Z,14.68
2018-06-23T04:08:01.005Z,14.68
2018-06-23T04:08:27.144Z,14.65
2018-06-23T04:08:53.277Z,14.65
2018-06-23T04:09:19.418Z,14.68
2018-06-23T04:09:45.566Z,14.59
2018-06-23T04:10:11.700Z,14.62
2018-06-23T04:10:37.866Z,14.7
2018-06-23T04:11:04.025Z,14.68
2018-06-23T04:11:30.188Z,14.63
2018-06-23T04:11:56.323Z,14.62
2018-06-23T04:12:22.462Z,14.62
2018-06-23T04:12:48.659Z,14.6
2018-06-23T04:13:14.797Z,14.63
2018-06-23T04:13:40.966Z,14.68
2018-06-23T04:14:07.101Z,14.68
2018-06-23T04:14:33.247Z,14.68
2018-06-23T04:14:59.392Z,14.59
2018-06-23T04:15:25.523Z,14.58
2018-06-23T04:15:51.667Z,14.63
2018-06-23T04:16:17.801Z,14.63
2018-06-23T04:16:43.946Z,14.6
2018-06-23T04:17:10.078Z,14.66
2018-06-23T04:17:36.219Z,14.59
2018-06-23T04:18:02.359Z,14.59
2018-06-23T04:18:28.498Z,14.54
2018-06-23T04:18:54.632Z,14.66
2018-06-23T04:19:20.797Z,14.69
2018-06-23T04:19:46.935Z,14.68
2018-06-23T04:20:13.076Z,14.7
2018-06-23T04:20:39.250Z,14.63
2018-06-23T04:21:05.386Z,14.58
2018-06-23T04:21:31.525Z,14.65
2018-06-23T04:21:57.649Z,14.54
2018-06-23T04:22:23.857Z,14.66
2018-06-23T04:22:49.931Z,14.65
2018-06-23T04:23:16.080Z,14.59
2018-06-23T04:23:42.226Z,14.55
2018-06-23T04:24:08.369Z,14.59
2018-06-23T04:24:34.507Z,14.63
2018-06-23T04:25:00.655Z,14.58
2018-06-23T04:25:26.785Z,14.59
2018-06-23T04:25:52.920Z,14.59
2018-06-23T04:26:19.086Z,14.51
2018-06-23T04:26:45.220Z,14.54
2018-06-23T04:27:11.365Z,14.59
2018-06-23T04:27:37.489Z,14.48
2018-06-23T04:28:03.625Z,14.54
2018-06-23T04:28:29.768Z,14.59
2018-06-23T04:28:55.908Z,14.53
2018-06-23T04:29:22.047Z,14.48
2018-06-23T04:29:48.182Z,14.5
2018-06-23T04:30:14.321Z,14.55
2018-06-23T04:30:40.454Z,14.53
2018-06-23T04:31:06.592Z,14.48
2018-06-23T04:31:32.734Z,14.51
2018-06-23T04:31:58.871Z,14.5
2018-06-23T04:32:25.001Z,14.58
2018-06-23T04:32:51.141Z,14.59
2018-06-23T04:33:17.282Z,14.59
2018-06-23T04:33:43.438Z,14.59
2018-06-23T04:34:09.600Z,14.55
2018-06-23T04:34:35.745Z,14.68
2018-06-23T04:35:01.877Z,14.63
2018-06-23T04:35:28.020Z,14.69
2018-06-23T04:35:54.157Z,14.66
2018-06-23T04:36:20.327Z,14.55
2018-06-23T04:36:46.467Z,14.66
2018-06-23T04:37:12.604Z,14.62
2018-06-23T04:37:38.745Z,14.69
2018-06-23T04:38:04.880Z,14.7
2018-06-23T04:38:31.017Z,14.68
2018-06-23T04:38:57.153Z,14.72
2018-06-23T04:39:23.320Z,14.62
2018-06-23T04:39:49.449Z,14.66
2018-06-23T04:40:15.594Z,14.78
2018-06-23T04:40:41.729Z,14.73
2018-06-23T04:41:07.869Z,14.77
2018-06-23T04:41:34.000Z,14.72
2018-06-23T04:42:00.136Z,14.77
2018-06-23T04:42:26.278Z,14.72
2018-06-23T04:42:52.414Z,14.7
2018-06-23T04:43:18.552Z,14.73
2018-06-23T04:43:44.687Z,14.77
2018-06-23T04:44:10.826Z,14.79
2018-06-23T04:44:37.016Z,14.72
2018-06-23T04:45:03.175Z,14.69
2018-06-23T04:45:29.311Z,14.69
2018-06-23T04:45:55.443Z,14.77
2018-06-23T04:46:21.586Z,14.85
2018-06-23T04:46:47.728Z,14.77
2018-06-23T04:47:13.868Z,14.73
2018-06-23T04:47:40.006Z,14.68
2018-06-23T04:48:06.146Z,14.69
2018-06-23T04:48:32.300Z,14.81
2018-06-23T04:48:58.437Z,14.77
2018-06-23T04:49:24.606Z,14.73
2018-06-23T04:49:50.769Z,14.73
2018-06-23T04:50:16.917Z,14.78
2018-06-23T04:50:43.106Z,14.7
2018-06-23T04:51:09.263Z,14.77
2018-06-23T04:51:35.428Z,14.73
2018-06-23T04:52:01.567Z,14.72
2018-06-23T04:52:27.713Z,14.73
2018-06-23T04:52:53.847Z,14.73
2018-06-23T04:53:20.022Z,14.73
2018-06-23T04:53:46.184Z,14.77
2018-06-23T04:54:12.371Z,14.77
2018-06-23T04:54:38.549Z,14.66
2018-06-23T04:55:04.686Z,14.66
2018-06-23T04:55:30.824Z,14.66
2018-06-23T04:55:56.958Z,14.68
2018-06-23T04:56:23.121Z,14.66
2018-06-23T04:56:49.253Z,14.72
2018-06-23T04:57:15.390Z,14.65
2018-06-23T04:57:41.523Z,14.77
2018-06-23T04:58:07.705Z,14.73
2018-06-23T04:58:33.842Z,14.72
2018-06-23T04:58:59.981Z,14.65
2018-06-23T04:59:26.123Z,14.63
2018-06-23T04:59:52.278Z,14.77
2018-06-23T05:00:18.466Z,14.77
2018-06-23T05:00:44.569Z,14.77
2018-06-23T05:01:10.715Z,14.77
2018-06-23T05:01:36.850Z,14.7
2018-06-23T05:02:02.987Z,14.77
2018-06-23T05:02:29.119Z,14.73
2018-06-23T05:02:55.262Z,14.78
2018-06-23T05:03:21.397Z,14.85
2018-06-23T05:03:47.538Z,14.79
2018-06-23T05:04:13.668Z,14.79
2018-06-23T05:04:39.808Z,14.77
2018-06-23T05:05:05.974Z,14.77
2018-06-23T05:05:32.115Z,14.72
2018-06-23T05:05:58.251Z,14.63
2018-06-23T05:06:24.386Z,14.82
2018-06-23T05:06:50.526Z,14.84
2018-06-23T05:07:16.665Z,14.7
2018-06-23T05:07:42.820Z,14.77
2018-06-23T05:08:08.965Z,14.73
2018-06-23T05:08:35.101Z,14.69
2018-06-23T05:09:01.234Z,14.7
2018-06-23T05:09:27.370Z,14.72
2018-06-23T05:09:53.528Z,14.77
2018-06-23T05:10:19.723Z,14.73
2018-06-23T05:10:45.941Z,14.77
2018-06-23T05:11:12.187Z,14.68
2018-06-23T05:11:38.375Z,14.86
2018-06-23T05:12:04.488Z,14.82
2018-06-23T05:12:30.706Z,14.88
2018-06-23T05:12:56.854Z,14.82
2018-06-23T05:13:22.988Z,14.88
2018-06-23T05:13:49.139Z,14.88
2018-06-23T05:14:15.291Z,14.91
2018-06-23T05:14:41.445Z,14.88
2018-06-23T05:15:07.594Z,14.91
2018-06-23T05:15:33.731Z,14.82
2018-06-23T05:15:59.869Z,14.82
2018-06-23T05:16:26.006Z,14.84
2018-06-23T05:16:52.145Z,14.82
2018-06-23T05:17:18.288Z,14.81
2018-06-23T05:17:44.419Z,14.72
2018-06-23T05:18:10.555Z,14.78
2018-06-23T05:18:36.692Z,14.78
2018-06-23T05:19:02.841Z,14.73
2018-06-23T05:19:28.978Z,14.84
2018-06-23T05:19:55.120Z,14.82
2018-06-23T05:20:21.430Z,14.82
2018-06-23T05:20:47.480Z,14.79
2018-06-23T05:21:13.620Z,14.85
2018-06-23T05:21:39.765Z,14.82
2018-06-23T05:22:05.900Z,14.85
2018-06-23T05:22:32.055Z,14.85
2018-06-23T05:22:58.213Z,14.86
2018-06-23T05:23:24.350Z,14.84
2018-06-23T05:23:50.488Z,14.85
2018-06-23T05:24:16.652Z,14.91
2018-06-23T05:24:42.791Z,14.91
2018-06-23T05:25:08.937Z,14.81
2018-06-23T05:25:35.165Z,14.78
2018-06-23T05:26:01.387Z,14.85
2018-06-23T05:26:27.450Z,14.73
2018-06-23T05:26:53.611Z,14.73
2018-06-23T05:27:19.751Z,14.84
2018-06-23T05:27:45.891Z,14.7
2018-06-23T05:28:12.033Z,14.79
2018-06-23T05:28:38.172Z,14.79
2018-06-23T05:29:04.330Z,14.72
2018-06-23T05:29:30.470Z,14.81
2018-06-23T05:29:56.631Z,14.73
2018-06-23T05:30:22.773Z,14.77
2018-06-23T05:30:48.910Z,14.72
2018-06-23T05:31:15.050Z,14.72
2018-06-23T05:31:41.240Z,14.78
2018-06-23T05:32:07.346Z,14.7
2018-06-23T05:32:33.491Z,14.78
2018-06-23T05:32:59.622Z,14.81
2018-06-23T05:33:25.760Z,14.72
2018-06-23T05:33:51.898Z,14.78
2018-06-23T05:34:18.038Z,14.72
2018-06-23T05:34:44.182Z,14.7
2018-06-23T05:35:10.314Z,14.77
2018-06-23T05:35:36.457Z,14.7
2018-06-23T05:36:02.633Z,14.77
2018-06-23T05:36:28.801Z,14.78
2018-06-23T05:36:54.921Z,14.77
2018-06-23T05:37:21.063Z,14.72
2018-06-23T05:37:47.261Z,14.84
2018-06-23T05:38:13.356Z,14.86